sensor_id;sensor_type;location;lat;lon;timestamp;P1;durP1;ratioP1;P2;durP2;ratioP2
19846;SDS011;10084;50.518;8.588;2024-01-30T00:01:15;3.27;;;1.43;;
19846;SDS011;10084;50.518;8.588;2024-01-30T00:03:41;2.40;;;2.23;;
19846;SDS011;10084;50.518;8.588;2024-01-30T00:06:07;2.63;;;1.80;;
19846;SDS011;10084;50.518;8.588;2024-01-30T00:08:33;5.53;;;2.73;;
19846;SDS011;10084;50.518;8.588;2024-01-30T00:10:59;1.60;;;1.27;;
19846;SDS011;10084;50.518;8.588;2024-01-30T00:13:26;5.30;;;1.50;;
19846;SDS011;10084;50.518;8.588;2024-01-30T00:15:52;1.33;;;1.30;;
19846;SDS011;10084;50.518;8.588;2024-01-30T00:18:18;2.33;;;1.23;;
19846;SDS011;10084;50.518;8.588;2024-01-30T00:20:44;1.83;;;1.73;;
19846;SDS011;10084;50.518;8.588;2024-01-30T00:23:09;3.50;;;2.37;;
19846;SDS011;10084;50.518;8.588;2024-01-30T00:25:35;3.90;;;1.93;;
19846;SDS011;10084;50.518;8.588;2024-01-30T00:28:01;4.50;;;1.97;;
19846;SDS011;10084;50.518;8.588;2024-01-30T00:30:27;1.37;;;1.33;;
19846;SDS011;10084;50.518;8.588;2024-01-30T00:32:53;1.93;;;1.73;;
19846;SDS011;10084;50.518;8.588;2024-01-30T00:35:19;1.90;;;1.47;;
19846;SDS011;10084;50.518;8.588;2024-01-30T00:37:45;3.47;;;2.37;;
19846;SDS011;10084;50.518;8.588;2024-01-30T00:40:10;2.53;;;2.33;;
19846;SDS011;10084;50.518;8.588;2024-01-30T00:42:44;1.57;;;1.37;;
19846;SDS011;10084;50.518;8.588;2024-01-30T00:45:16;3.47;;;1.77;;
19846;SDS011;10084;50.518;8.588;2024-01-30T00:47:42;3.40;;;2.73;;
19846;SDS011;10084;50.518;8.588;2024-01-30T00:50:08;1.37;;;1.27;;
19846;SDS011;10084;50.518;8.588;2024-01-30T00:52:35;2.43;;;2.23;;
19846;SDS011;10084;50.518;8.588;2024-01-30T00:55:01;1.67;;;1.57;;
19846;SDS011;10084;50.518;8.588;2024-01-30T00:57:28;1.90;;;1.80;;
19846;SDS011;10084;50.518;8.588;2024-01-30T00:59:54;1.47;;;1.47;;
19846;SDS011;10084;50.518;8.588;2024-01-30T01:02:19;1.83;;;1.73;;
19846;SDS011;10084;50.518;8.588;2024-01-30T01:04:45;1.60;;;1.50;;
19846;SDS011;10084;50.518;8.588;2024-01-30T01:07:11;2.67;;;2.00;;
19846;SDS011;10084;50.518;8.588;2024-01-30T01:09:37;4.67;;;2.07;;
19846;SDS011;10084;50.518;8.588;2024-01-30T01:12:03;2.90;;;2.10;;
19846;SDS011;10084;50.518;8.588;2024-01-30T01:14:29;13.47;;;1.80;;
19846;SDS011;10084;50.518;8.588;2024-01-30T01:16:55;5.67;;;2.63;;
19846;SDS011;10084;50.518;8.588;2024-01-30T01:19:21;2.63;;;2.43;;
19846;SDS011;10084;50.518;8.588;2024-01-30T01:21:47;3.20;;;1.27;;
19846;SDS011;10084;50.518;8.588;2024-01-30T01:24:13;3.63;;;1.50;;
19846;SDS011;10084;50.518;8.588;2024-01-30T01:26:39;1.10;;;1.10;;
19846;SDS011;10084;50.518;8.588;2024-01-30T01:29:05;5.33;;;2.73;;
19846;SDS011;10084;50.518;8.588;2024-01-30T01:31:35;3.20;;;1.97;;
19846;SDS011;10084;50.518;8.588;2024-01-30T01:34:05;2.00;;;1.80;;
19846;SDS011;10084;50.518;8.588;2024-01-30T01:36:31;2.20;;;1.97;;
19846;SDS011;10084;50.518;8.588;2024-01-30T01:38:57;2.47;;;2.17;;
19846;SDS011;10084;50.518;8.588;2024-01-30T01:41:22;1.87;;;1.77;;
19846;SDS011;10084;50.518;8.588;2024-01-30T01:43:48;2.07;;;1.90;;
19846;SDS011;10084;50.518;8.588;2024-01-30T01:46:14;4.07;;;1.30;;
19846;SDS011;10084;50.518;8.588;2024-01-30T01:48:40;5.07;;;1.80;;
19846;SDS011;10084;50.518;8.588;2024-01-30T01:51:07;1.67;;;1.50;;
19846;SDS011;10084;50.518;8.588;2024-01-30T01:53:34;1.40;;;1.30;;
19846;SDS011;10084;50.518;8.588;2024-01-30T01:56:00;1.90;;;1.80;;
19846;SDS011;10084;50.518;8.588;2024-01-30T01:58:26;0.93;;;0.93;;
19846;SDS011;10084;50.518;8.588;2024-01-30T02:00:54;0.93;;;0.93;;
19846;SDS011;10084;50.518;8.588;2024-01-30T02:03:21;13.23;;;0.80;;
19846;SDS011;10084;50.518;8.588;2024-01-30T02:05:46;1.50;;;1.40;;
19846;SDS011;10084;50.518;8.588;2024-01-30T02:08:12;1.03;;;0.93;;
19846;SDS011;10084;50.518;8.588;2024-01-30T02:10:38;1.20;;;1.20;;
19846;SDS011;10084;50.518;8.588;2024-01-30T02:13:04;2.97;;;1.50;;
19846;SDS011;10084;50.518;8.588;2024-01-30T02:15:30;3.63;;;2.33;;
19846;SDS011;10084;50.518;8.588;2024-01-30T02:17:55;4.97;;;1.63;;
19846;SDS011;10084;50.518;8.588;2024-01-30T02:20:22;5.87;;;1.23;;
19846;SDS011;10084;50.518;8.588;2024-01-30T02:22:50;2.20;;;1.77;;
19846;SDS011;10084;50.518;8.588;2024-01-30T02:25:19;6.67;;;2.57;;
19846;SDS011;10084;50.518;8.588;2024-01-30T02:27:45;1.73;;;1.63;;
19846;SDS011;10084;50.518;8.588;2024-01-30T02:30:11;1.60;;;1.40;;
19846;SDS011;10084;50.518;8.588;2024-01-30T02:32:37;3.50;;;1.60;;
19846;SDS011;10084;50.518;8.588;2024-01-30T02:35:02;1.77;;;1.47;;
19846;SDS011;10084;50.518;8.588;2024-01-30T02:37:28;1.93;;;1.73;;
19846;SDS011;10084;50.518;8.588;2024-01-30T02:39:54;2.13;;;2.03;;
19846;SDS011;10084;50.518;8.588;2024-01-30T02:42:20;1.73;;;1.63;;
19846;SDS011;10084;50.518;8.588;2024-01-30T02:44:45;2.13;;;1.93;;
19846;SDS011;10084;50.518;8.588;2024-01-30T02:47:11;2.47;;;2.37;;
19846;SDS011;10084;50.518;8.588;2024-01-30T02:49:37;2.10;;;1.93;;
19846;SDS011;10084;50.518;8.588;2024-01-30T02:52:02;1.67;;;1.57;;
19846;SDS011;10084;50.518;8.588;2024-01-30T02:54:28;2.53;;;2.33;;
19846;SDS011;10084;50.518;8.588;2024-01-30T02:56:55;2.30;;;1.80;;
19846;SDS011;10084;50.518;8.588;2024-01-30T02:59:21;2.37;;;1.60;;
19846;SDS011;10084;50.518;8.588;2024-01-30T03:01:47;3.83;;;3.53;;
19846;SDS011;10084;50.518;8.588;2024-01-30T03:04:13;8.23;;;2.23;;
19846;SDS011;10084;50.518;8.588;2024-01-30T03:06:38;5.83;;;1.63;;
19846;SDS011;10084;50.518;8.588;2024-01-30T03:09:09;2.23;;;2.00;;
19846;SDS011;10084;50.518;8.588;2024-01-30T03:11:35;3.07;;;2.77;;
19846;SDS011;10084;50.518;8.588;2024-01-30T03:14:00;3.00;;;2.80;;
19846;SDS011;10084;50.518;8.588;2024-01-30T03:16:26;2.87;;;2.50;;
19846;SDS011;10084;50.518;8.588;2024-01-30T03:18:52;6.27;;;1.93;;
19846;SDS011;10084;50.518;8.588;2024-01-30T03:21:17;1.83;;;1.73;;
19846;SDS011;10084;50.518;8.588;2024-01-30T03:23:43;4.57;;;2.43;;
19846;SDS011;10084;50.518;8.588;2024-01-30T03:26:09;2.90;;;2.70;;
19846;SDS011;10084;50.518;8.588;2024-01-30T03:28:36;9.07;;;1.47;;
19846;SDS011;10084;50.518;8.588;2024-01-30T03:31:01;4.43;;;2.17;;
19846;SDS011;10084;50.518;8.588;2024-01-30T03:33:27;2.43;;;2.33;;
19846;SDS011;10084;50.518;8.588;2024-01-30T03:35:53;2.30;;;2.03;;
19846;SDS011;10084;50.518;8.588;2024-01-30T03:38:19;2.00;;;1.90;;
19846;SDS011;10084;50.518;8.588;2024-01-30T03:40:44;1.60;;;1.47;;
19846;SDS011;10084;50.518;8.588;2024-01-30T03:43:10;2.30;;;2.10;;
19846;SDS011;10084;50.518;8.588;2024-01-30T03:45:36;2.30;;;2.20;;
19846;SDS011;10084;50.518;8.588;2024-01-30T03:48:02;2.70;;;2.40;;
19846;SDS011;10084;50.518;8.588;2024-01-30T03:50:28;1.70;;;1.60;;
19846;SDS011;10084;50.518;8.588;2024-01-30T03:52:53;3.57;;;3.27;;
19846;SDS011;10084;50.518;8.588;2024-01-30T03:55:19;2.73;;;1.13;;
19846;SDS011;10084;50.518;8.588;2024-01-30T03:57:45;2.43;;;2.23;;
19846;SDS011;10084;50.518;8.588;2024-01-30T04:00:10;4.70;;;2.80;;
19846;SDS011;10084;50.518;8.588;2024-01-30T04:02:39;6.67;;;2.40;;
19846;SDS011;10084;50.518;8.588;2024-01-30T04:05:05;1.93;;;1.83;;
19846;SDS011;10084;50.518;8.588;2024-01-30T04:07:31;2.23;;;2.07;;
19846;SDS011;10084;50.518;8.588;2024-01-30T04:09:57;1.20;;;1.10;;
19846;SDS011;10084;50.518;8.588;2024-01-30T04:12:23;2.23;;;1.77;;
19846;SDS011;10084;50.518;8.588;2024-01-30T04:14:48;2.97;;;2.27;;
19846;SDS011;10084;50.518;8.588;2024-01-30T04:17:14;2.60;;;2.37;;
19846;SDS011;10084;50.518;8.588;2024-01-30T04:19:40;2.10;;;1.90;;
19846;SDS011;10084;50.518;8.588;2024-01-30T04:22:06;1.43;;;1.40;;
19846;SDS011;10084;50.518;8.588;2024-01-30T04:24:31;2.87;;;2.30;;
19846;SDS011;10084;50.518;8.588;2024-01-30T04:26:57;3.13;;;1.90;;
19846;SDS011;10084;50.518;8.588;2024-01-30T04:29:22;4.43;;;2.40;;
19846;SDS011;10084;50.518;8.588;2024-01-30T04:31:48;1.63;;;1.53;;
19846;SDS011;10084;50.518;8.588;2024-01-30T04:34:14;11.30;;;1.50;;
19846;SDS011;10084;50.518;8.588;2024-01-30T04:36:39;3.33;;;2.33;;
19846;SDS011;10084;50.518;8.588;2024-01-30T04:39:08;2.00;;;1.87;;
19846;SDS011;10084;50.518;8.588;2024-01-30T04:41:34;4.20;;;3.20;;
19846;SDS011;10084;50.518;8.588;2024-01-30T04:43:59;2.97;;;2.60;;
19846;SDS011;10084;50.518;8.588;2024-01-30T04:46:25;2.10;;;1.63;;
19846;SDS011;10084;50.518;8.588;2024-01-30T04:48:50;3.30;;;2.30;;
19846;SDS011;10084;50.518;8.588;2024-01-30T04:51:16;2.50;;;2.30;;
19846;SDS011;10084;50.518;8.588;2024-01-30T04:53:42;4.67;;;2.70;;
19846;SDS011;10084;50.518;8.588;2024-01-30T04:56:07;2.70;;;2.50;;
19846;SDS011;10084;50.518;8.588;2024-01-30T04:58:33;1.07;;;1.07;;
19846;SDS011;10084;50.518;8.588;2024-01-30T05:00:59;0.97;;;0.80;;
19846;SDS011;10084;50.518;8.588;2024-01-30T05:03:25;2.97;;;1.73;;
19846;SDS011;10084;50.518;8.588;2024-01-30T05:05:50;0.90;;;0.90;;
19846;SDS011;10084;50.518;8.588;2024-01-30T05:08:16;1.93;;;1.83;;
19846;SDS011;10084;50.518;8.588;2024-01-30T05:10:42;4.80;;;1.80;;
19846;SDS011;10084;50.518;8.588;2024-01-30T05:13:07;1.43;;;1.33;;
19846;SDS011;10084;50.518;8.588;2024-01-30T05:15:33;2.63;;;1.70;;
19846;SDS011;10084;50.518;8.588;2024-01-30T05:17:58;1.20;;;1.10;;
19846;SDS011;10084;50.518;8.588;2024-01-30T05:20:24;2.03;;;1.87;;
19846;SDS011;10084;50.518;8.588;2024-01-30T05:22:53;1.13;;;1.03;;
19846;SDS011;10084;50.518;8.588;2024-01-30T05:25:18;2.07;;;1.87;;
19846;SDS011;10084;50.518;8.588;2024-01-30T05:27:44;1.97;;;1.03;;
19846;SDS011;10084;50.518;8.588;2024-01-30T05:30:10;2.67;;;2.57;;
19846;SDS011;10084;50.518;8.588;2024-01-30T05:32:36;3.37;;;2.00;;
19846;SDS011;10084;50.518;8.588;2024-01-30T05:35:02;2.60;;;2.40;;
19846;SDS011;10084;50.518;8.588;2024-01-30T05:37:28;3.67;;;1.67;;
19846;SDS011;10084;50.518;8.588;2024-01-30T05:39:54;2.17;;;2.07;;
19846;SDS011;10084;50.518;8.588;2024-01-30T05:42:19;1.40;;;1.33;;
19846;SDS011;10084;50.518;8.588;2024-01-30T05:44:45;6.33;;;2.37;;
19846;SDS011;10084;50.518;8.588;2024-01-30T05:47:11;1.80;;;1.70;;
19846;SDS011;10084;50.518;8.588;2024-01-30T05:49:36;1.87;;;1.73;;
19846;SDS011;10084;50.518;8.588;2024-01-30T05:52:03;0.97;;;0.97;;
19846;SDS011;10084;50.518;8.588;2024-01-30T05:54:29;1.90;;;1.30;;
19846;SDS011;10084;50.518;8.588;2024-01-30T05:56:54;1.67;;;1.53;;
19846;SDS011;10084;50.518;8.588;2024-01-30T05:59:20;1.13;;;1.13;;
19846;SDS011;10084;50.518;8.588;2024-01-30T06:01:48;2.50;;;1.63;;
19846;SDS011;10084;50.518;8.588;2024-01-30T06:04:14;2.83;;;2.13;;
19846;SDS011;10084;50.518;8.588;2024-01-30T06:06:40;1.70;;;1.60;;
19846;SDS011;10084;50.518;8.588;2024-01-30T06:09:06;5.97;;;1.63;;
19846;SDS011;10084;50.518;8.588;2024-01-30T06:11:35;3.03;;;2.27;;
19846;SDS011;10084;50.518;8.588;2024-01-30T06:14:01;1.07;;;1.07;;
19846;SDS011;10084;50.518;8.588;2024-01-30T06:16:26;3.40;;;1.97;;
19846;SDS011;10084;50.518;8.588;2024-01-30T06:18:57;2.10;;;1.90;;
19846;SDS011;10084;50.518;8.588;2024-01-30T06:21:23;1.33;;;1.23;;
19846;SDS011;10084;50.518;8.588;2024-01-30T06:23:49;8.60;;;1.63;;
19846;SDS011;10084;50.518;8.588;2024-01-30T06:26:14;2.00;;;1.90;;
19846;SDS011;10084;50.518;8.588;2024-01-30T06:28:40;2.70;;;1.73;;
19846;SDS011;10084;50.518;8.588;2024-01-30T06:31:06;1.90;;;1.80;;
19846;SDS011;10084;50.518;8.588;2024-01-30T06:33:31;2.33;;;2.13;;
19846;SDS011;10084;50.518;8.588;2024-01-30T06:35:57;2.33;;;2.17;;
19846;SDS011;10084;50.518;8.588;2024-01-30T06:38:23;1.90;;;1.80;;
19846;SDS011;10084;50.518;8.588;2024-01-30T06:40:49;2.60;;;2.40;;
19846;SDS011;10084;50.518;8.588;2024-01-30T06:43:15;4.67;;;2.63;;
19846;SDS011;10084;50.518;8.588;2024-01-30T06:45:40;3.43;;;3.17;;
19846;SDS011;10084;50.518;8.588;2024-01-30T06:48:07;2.63;;;1.63;;
19846;SDS011;10084;50.518;8.588;2024-01-30T06:50:33;3.03;;;2.83;;
19846;SDS011;10084;50.518;8.588;2024-01-30T06:52:59;2.50;;;2.30;;
19846;SDS011;10084;50.518;8.588;2024-01-30T06:55:25;2.13;;;1.90;;
19846;SDS011;10084;50.518;8.588;2024-01-30T06:57:50;3.77;;;3.57;;
19846;SDS011;10084;50.518;8.588;2024-01-30T07:00:16;20.53;;;5.13;;
19846;SDS011;10084;50.518;8.588;2024-01-30T07:02:44;3.63;;;2.83;;
19846;SDS011;10084;50.518;8.588;2024-01-30T07:05:09;5.10;;;3.20;;
19846;SDS011;10084;50.518;8.588;2024-01-30T07:07:35;8.50;;;3.47;;
19846;SDS011;10084;50.518;8.588;2024-01-30T07:10:01;8.37;;;3.90;;
19846;SDS011;10084;50.518;8.588;2024-01-30T07:12:26;7.40;;;3.20;;
19846;SDS011;10084;50.518;8.588;2024-01-30T07:14:52;3.03;;;2.63;;
19846;SDS011;10084;50.518;8.588;2024-01-30T07:17:18;4.97;;;3.07;;
19846;SDS011;10084;50.518;8.588;2024-01-30T07:19:44;2.00;;;1.90;;
19846;SDS011;10084;50.518;8.588;2024-01-30T07:22:09;6.90;;;3.13;;
19846;SDS011;10084;50.518;8.588;2024-01-30T07:24:35;7.33;;;3.43;;
19846;SDS011;10084;50.518;8.588;2024-01-30T07:27:01;1.67;;;1.57;;
19846;SDS011;10084;50.518;8.588;2024-01-30T07:29:27;6.50;;;2.43;;
19846;SDS011;10084;50.518;8.588;2024-01-30T07:31:53;3.60;;;2.87;;
19846;SDS011;10084;50.518;8.588;2024-01-30T07:34:18;3.47;;;2.50;;
19846;SDS011;10084;50.518;8.588;2024-01-30T07:36:44;12.23;;;3.13;;
19846;SDS011;10084;50.518;8.588;2024-01-30T07:39:10;2.93;;;2.30;;
19846;SDS011;10084;50.518;8.588;2024-01-30T07:41:35;1.80;;;1.70;;
19846;SDS011;10084;50.518;8.588;2024-01-30T07:44:02;2.63;;;1.93;;
19846;SDS011;10084;50.518;8.588;2024-01-30T07:46:28;3.87;;;2.83;;
19846;SDS011;10084;50.518;8.588;2024-01-30T07:48:54;4.60;;;2.73;;
19846;SDS011;10084;50.518;8.588;2024-01-30T07:51:21;0.83;;;0.83;;
19846;SDS011;10084;50.518;8.588;2024-01-30T07:53:46;2.73;;;2.60;;
19846;SDS011;10084;50.518;8.588;2024-01-30T07:56:12;3.23;;;2.30;;
19846;SDS011;10084;50.518;8.588;2024-01-30T07:58:38;3.00;;;2.57;;
19846;SDS011;10084;50.518;8.588;2024-01-30T08:01:03;2.73;;;2.53;;
19846;SDS011;10084;50.518;8.588;2024-01-30T08:03:29;4.67;;;2.83;;
19846;SDS011;10084;50.518;8.588;2024-01-30T08:05:55;2.53;;;2.43;;
19846;SDS011;10084;50.518;8.588;2024-01-30T08:08:20;2.30;;;2.20;;
19846;SDS011;10084;50.518;8.588;2024-01-30T08:10:46;10.77;;;2.87;;
19846;SDS011;10084;50.518;8.588;2024-01-30T08:13:13;3.23;;;3.03;;
19846;SDS011;10084;50.518;8.588;2024-01-30T08:15:38;4.10;;;3.30;;
19846;SDS011;10084;50.518;8.588;2024-01-30T08:18:04;3.73;;;2.53;;
19846;SDS011;10084;50.518;8.588;2024-01-30T08:20:32;2.73;;;2.30;;
19846;SDS011;10084;50.518;8.588;2024-01-30T08:22:57;3.60;;;2.67;;
19846;SDS011;10084;50.518;8.588;2024-01-30T08:25:25;4.87;;;3.23;;
19846;SDS011;10084;50.518;8.588;2024-01-30T08:27:51;11.03;;;3.20;;
19846;SDS011;10084;50.518;8.588;2024-01-30T08:30:17;3.77;;;2.93;;
19846;SDS011;10084;50.518;8.588;2024-01-30T08:32:42;3.43;;;2.67;;
19846;SDS011;10084;50.518;8.588;2024-01-30T08:35:08;4.67;;;3.90;;
19846;SDS011;10084;50.518;8.588;2024-01-30T08:37:34;5.23;;;3.03;;
19846;SDS011;10084;50.518;8.588;2024-01-30T08:39:59;8.03;;;1.67;;
19846;SDS011;10084;50.518;8.588;2024-01-30T08:42:27;2.73;;;2.53;;
19846;SDS011;10084;50.518;8.588;2024-01-30T08:44:52;5.60;;;2.80;;
19846;SDS011;10084;50.518;8.588;2024-01-30T08:47:19;2.50;;;2.30;;
19846;SDS011;10084;50.518;8.588;2024-01-30T08:49:45;3.87;;;2.93;;
19846;SDS011;10084;50.518;8.588;2024-01-30T08:52:10;3.00;;;2.50;;
19846;SDS011;10084;50.518;8.588;2024-01-30T08:54:36;3.10;;;2.87;;
19846;SDS011;10084;50.518;8.588;2024-01-30T08:57:02;4.57;;;4.07;;
19846;SDS011;10084;50.518;8.588;2024-01-30T08:59:29;3.50;;;3.20;;
19846;SDS011;10084;50.518;8.588;2024-01-30T09:01:55;4.90;;;2.50;;
19846;SDS011;10084;50.518;8.588;2024-01-30T09:04:23;2.30;;;2.20;;
19846;SDS011;10084;50.518;8.588;2024-01-30T09:06:49;4.17;;;3.77;;
19846;SDS011;10084;50.518;8.588;2024-01-30T09:09:15;5.47;;;3.47;;
19846;SDS011;10084;50.518;8.588;2024-01-30T09:11:41;2.57;;;2.37;;
19846;SDS011;10084;50.518;8.588;2024-01-30T09:14:06;4.33;;;4.03;;
19846;SDS011;10084;50.518;8.588;2024-01-30T09:16:32;3.20;;;2.30;;
19846;SDS011;10084;50.518;8.588;2024-01-30T09:18:58;7.60;;;3.30;;
19846;SDS011;10084;50.518;8.588;2024-01-30T09:21:24;7.73;;;3.70;;
19846;SDS011;10084;50.518;8.588;2024-01-30T09:23:52;7.20;;;3.83;;
19846;SDS011;10084;50.518;8.588;2024-01-30T09:26:19;4.67;;;3.20;;
19846;SDS011;10084;50.518;8.588;2024-01-30T09:28:45;13.57;;;3.57;;
19846;SDS011;10084;50.518;8.588;2024-01-30T09:31:11;6.57;;;3.87;;
19846;SDS011;10084;50.518;8.588;2024-01-30T09:33:37;5.87;;;3.80;;
19846;SDS011;10084;50.518;8.588;2024-01-30T09:36:04;9.27;;;4.37;;
19846;SDS011;10084;50.518;8.588;2024-01-30T09:38:31;8.67;;;3.37;;
19846;SDS011;10084;50.518;8.588;2024-01-30T09:40:57;5.87;;;2.93;;
19846;SDS011;10084;50.518;8.588;2024-01-30T09:43:29;7.00;;;2.43;;
19846;SDS011;10084;50.518;8.588;2024-01-30T09:46:01;5.90;;;2.83;;
19846;SDS011;10084;50.518;8.588;2024-01-30T09:48:29;2.73;;;2.53;;
19846;SDS011;10084;50.518;8.588;2024-01-30T09:50:56;3.97;;;3.57;;
19846;SDS011;10084;50.518;8.588;2024-01-30T09:53:22;4.87;;;3.17;;
19846;SDS011;10084;50.518;8.588;2024-01-30T09:55:48;3.37;;;2.47;;
19846;SDS011;10084;50.518;8.588;2024-01-30T09:58:16;3.50;;;3.27;;
19846;SDS011;10084;50.518;8.588;2024-01-30T10:00:42;2.73;;;2.30;;
19846;SDS011;10084;50.518;8.588;2024-01-30T10:03:08;3.83;;;3.27;;
19846;SDS011;10084;50.518;8.588;2024-01-30T10:05:35;3.70;;;3.07;;
19846;SDS011;10084;50.518;8.588;2024-01-30T10:08:05;2.73;;;2.53;;
19846;SDS011;10084;50.518;8.588;2024-01-30T10:10:33;2.60;;;2.40;;
19846;SDS011;10084;50.518;8.588;2024-01-30T10:13:00;6.63;;;3.13;;
19846;SDS011;10084;50.518;8.588;2024-01-30T10:15:26;5.63;;;3.10;;
19846;SDS011;10084;50.518;8.588;2024-01-30T10:17:53;5.20;;;2.93;;
19846;SDS011;10084;50.518;8.588;2024-01-30T10:20:18;6.70;;;3.07;;
19846;SDS011;10084;50.518;8.588;2024-01-30T10:22:45;2.37;;;2.17;;
19846;SDS011;10084;50.518;8.588;2024-01-30T10:25:11;2.83;;;2.53;;
19846;SDS011;10084;50.518;8.588;2024-01-30T10:27:37;4.80;;;2.50;;
19846;SDS011;10084;50.518;8.588;2024-01-30T10:30:05;3.37;;;3.07;;
19846;SDS011;10084;50.518;8.588;2024-01-30T10:32:31;3.00;;;2.63;;
19846;SDS011;10084;50.518;8.588;2024-01-30T10:34:57;2.43;;;2.30;;
19846;SDS011;10084;50.518;8.588;2024-01-30T10:37:22;4.40;;;4.00;;
19846;SDS011;10084;50.518;8.588;2024-01-30T10:39:52;6.90;;;2.67;;
19846;SDS011;10084;50.518;8.588;2024-01-30T10:42:20;7.17;;;4.00;;
19846;SDS011;10084;50.518;8.588;2024-01-30T10:45:07;2.93;;;2.73;;
19846;SDS011;10084;50.518;8.588;2024-01-30T10:47:35;6.30;;;3.40;;
19846;SDS011;10084;50.518;8.588;2024-01-30T10:50:04;2.90;;;2.63;;
19846;SDS011;10084;50.518;8.588;2024-01-30T10:52:30;2.93;;;2.63;;
19846;SDS011;10084;50.518;8.588;2024-01-30T10:54:57;3.63;;;3.27;;
19846;SDS011;10084;50.518;8.588;2024-01-30T10:57:24;2.80;;;2.20;;
19846;SDS011;10084;50.518;8.588;2024-01-30T10:59:55;5.80;;;4.67;;
19846;SDS011;10084;50.518;8.588;2024-01-30T11:02:23;3.43;;;2.30;;
19846;SDS011;10084;50.518;8.588;2024-01-30T11:04:49;3.43;;;3.17;;
19846;SDS011;10084;50.518;8.588;2024-01-30T11:07:23;3.53;;;3.17;;
19846;SDS011;10084;50.518;8.588;2024-01-30T11:09:50;3.73;;;3.43;;
19846;SDS011;10084;50.518;8.588;2024-01-30T11:12:21;2.67;;;2.47;;
19846;SDS011;10084;50.518;8.588;2024-01-30T11:15:06;4.43;;;3.10;;
19846;SDS011;10084;50.518;8.588;2024-01-30T11:20:15;4.43;;;3.50;;
19846;SDS011;10084;50.518;8.588;2024-01-30T11:22:45;3.07;;;2.77;;
19846;SDS011;10084;50.518;8.588;2024-01-30T11:25:15;3.37;;;3.07;;
19846;SDS011;10084;50.518;8.588;2024-01-30T11:27:43;3.63;;;3.33;;
19846;SDS011;10084;50.518;8.588;2024-01-30T11:30:10;6.23;;;2.67;;
19846;SDS011;10084;50.518;8.588;2024-01-30T11:32:45;4.10;;;3.70;;
19846;SDS011;10084;50.518;8.588;2024-01-30T11:35:11;7.17;;;3.97;;
19846;SDS011;10084;50.518;8.588;2024-01-30T11:37:37;5.07;;;3.43;;
19846;SDS011;10084;50.518;8.588;2024-01-30T11:40:06;3.37;;;2.80;;
19846;SDS011;10084;50.518;8.588;2024-01-30T11:42:33;3.57;;;3.27;;
19846;SDS011;10084;50.518;8.588;2024-01-30T11:45:02;14.53;;;4.23;;
19846;SDS011;10084;50.518;8.588;2024-01-30T11:47:28;3.27;;;3.07;;
19846;SDS011;10084;50.518;8.588;2024-01-30T11:49:54;3.33;;;3.13;;
19846;SDS011;10084;50.518;8.588;2024-01-30T11:52:20;3.67;;;3.37;;
19846;SDS011;10084;50.518;8.588;2024-01-30T11:54:46;3.10;;;2.80;;
19846;SDS011;10084;50.518;8.588;2024-01-30T11:57:12;3.83;;;3.47;;
19846;SDS011;10084;50.518;8.588;2024-01-30T11:59:37;5.47;;;3.13;;
19846;SDS011;10084;50.518;8.588;2024-01-30T12:02:04;3.83;;;3.47;;
19846;SDS011;10084;50.518;8.588;2024-01-30T12:04:29;4.30;;;4.00;;
19846;SDS011;10084;50.518;8.588;2024-01-30T12:06:55;4.20;;;2.83;;
19846;SDS011;10084;50.518;8.588;2024-01-30T12:09:21;5.87;;;4.03;;
19846;SDS011;10084;50.518;8.588;2024-01-30T12:11:48;4.00;;;3.70;;
19846;SDS011;10084;50.518;8.588;2024-01-30T12:14:17;5.60;;;3.97;;
19846;SDS011;10084;50.518;8.588;2024-01-30T12:16:48;8.50;;;4.27;;
19846;SDS011;10084;50.518;8.588;2024-01-30T12:19:21;9.80;;;3.97;;
19846;SDS011;10084;50.518;8.588;2024-01-30T12:21:53;3.33;;;3.03;;
19846;SDS011;10084;50.518;8.588;2024-01-30T12:24:24;4.57;;;3.80;;
19846;SDS011;10084;50.518;8.588;2024-01-30T12:26:58;3.83;;;3.20;;
19846;SDS011;10084;50.518;8.588;2024-01-30T12:29:25;4.13;;;3.77;;
19846;SDS011;10084;50.518;8.588;2024-01-30T12:31:54;4.57;;;4.17;;
19846;SDS011;10084;50.518;8.588;2024-01-30T12:34:20;6.70;;;3.53;;
19846;SDS011;10084;50.518;8.588;2024-01-30T12:36:49;8.70;;;4.13;;
19846;SDS011;10084;50.518;8.588;2024-01-30T12:39:15;13.73;;;4.27;;
19846;SDS011;10084;50.518;8.588;2024-01-30T12:41:41;7.17;;;3.73;;
19846;SDS011;10084;50.518;8.588;2024-01-30T12:44:07;5.03;;;2.93;;
19846;SDS011;10084;50.518;8.588;2024-01-30T12:46:34;3.57;;;3.27;;
19846;SDS011;10084;50.518;8.588;2024-01-30T12:48:59;6.50;;;4.30;;
19846;SDS011;10084;50.518;8.588;2024-01-30T12:51:25;4.17;;;3.67;;
19846;SDS011;10084;50.518;8.588;2024-01-30T12:53:51;4.23;;;3.33;;
19846;SDS011;10084;50.518;8.588;2024-01-30T12:56:17;6.03;;;4.07;;
19846;SDS011;10084;50.518;8.588;2024-01-30T12:58:42;4.93;;;4.33;;
19846;SDS011;10084;50.518;8.588;2024-01-30T13:01:08;6.97;;;5.27;;
19846;SDS011;10084;50.518;8.588;2024-01-30T13:03:35;4.40;;;4.00;;
19846;SDS011;10084;50.518;8.588;2024-01-30T13:06:01;4.13;;;3.83;;
19846;SDS011;10084;50.518;8.588;2024-01-30T13:08:27;4.20;;;3.90;;
19846;SDS011;10084;50.518;8.588;2024-01-30T13:10:53;3.63;;;3.23;;
19846;SDS011;10084;50.518;8.588;2024-01-30T13:13:18;9.50;;;4.07;;
19846;SDS011;10084;50.518;8.588;2024-01-30T13:15:44;7.90;;;3.53;;
19846;SDS011;10084;50.518;8.588;2024-01-30T13:18:09;4.43;;;4.13;;
19846;SDS011;10084;50.518;8.588;2024-01-30T13:20:35;2.97;;;2.67;;
19846;SDS011;10084;50.518;8.588;2024-01-30T13:23:01;5.00;;;4.70;;
19846;SDS011;10084;50.518;8.588;2024-01-30T13:25:27;4.67;;;3.30;;
19846;SDS011;10084;50.518;8.588;2024-01-30T13:27:53;5.20;;;3.20;;
19846;SDS011;10084;50.518;8.588;2024-01-30T13:30:18;11.13;;;4.60;;
19846;SDS011;10084;50.518;8.588;2024-01-30T13:32:44;13.07;;;5.20;;
19846;SDS011;10084;50.518;8.588;2024-01-30T13:35:11;3.90;;;3.60;;
19846;SDS011;10084;50.518;8.588;2024-01-30T13:37:36;4.60;;;4.20;;
19846;SDS011;10084;50.518;8.588;2024-01-30T13:40:04;4.63;;;4.23;;
19846;SDS011;10084;50.518;8.588;2024-01-30T13:42:34;7.40;;;4.20;;
19846;SDS011;10084;50.518;8.588;2024-01-30T13:44:59;7.23;;;4.03;;
19846;SDS011;10084;50.518;8.588;2024-01-30T13:47:25;5.87;;;4.63;;
19846;SDS011;10084;50.518;8.588;2024-01-30T13:49:51;4.77;;;4.47;;
19846;SDS011;10084;50.518;8.588;2024-01-30T13:52:18;7.40;;;3.87;;
19846;SDS011;10084;50.518;8.588;2024-01-30T13:54:44;4.63;;;4.17;;
19846;SDS011;10084;50.518;8.588;2024-01-30T13:57:09;4.70;;;4.30;;
19846;SDS011;10084;50.518;8.588;2024-01-30T13:59:35;6.13;;;4.50;;
19846;SDS011;10084;50.518;8.588;2024-01-30T14:02:02;13.00;;;4.67;;
19846;SDS011;10084;50.518;8.588;2024-01-30T14:04:28;5.03;;;3.80;;
19846;SDS011;10084;50.518;8.588;2024-01-30T14:06:54;11.53;;;4.73;;
19846;SDS011;10084;50.518;8.588;2024-01-30T14:09:19;6.53;;;4.30;;
19846;SDS011;10084;50.518;8.588;2024-01-30T14:11:46;5.13;;;4.70;;
19846;SDS011;10084;50.518;8.588;2024-01-30T14:14:12;5.00;;;4.57;;
19846;SDS011;10084;50.518;8.588;2024-01-30T14:16:37;5.17;;;4.67;;
19846;SDS011;10084;50.518;8.588;2024-01-30T14:19:03;4.93;;;4.43;;
19846;SDS011;10084;50.518;8.588;2024-01-30T14:21:29;3.60;;;3.40;;
19846;SDS011;10084;50.518;8.588;2024-01-30T14:23:55;6.10;;;2.90;;
19846;SDS011;10084;50.518;8.588;2024-01-30T14:26:20;4.57;;;4.27;;
19846;SDS011;10084;50.518;8.588;2024-01-30T14:28:46;3.67;;;3.37;;
19846;SDS011;10084;50.518;8.588;2024-01-30T14:31:12;7.30;;;4.67;;
19846;SDS011;10084;50.518;8.588;2024-01-30T14:33:39;5.40;;;4.33;;
19846;SDS011;10084;50.518;8.588;2024-01-30T14:36:04;4.43;;;3.97;;
19846;SDS011;10084;50.518;8.588;2024-01-30T14:38:30;5.73;;;4.20;;
19846;SDS011;10084;50.518;8.588;2024-01-30T14:40:56;5.00;;;4.50;;
19846;SDS011;10084;50.518;8.588;2024-01-30T14:43:21;3.20;;;3.00;;
19846;SDS011;10084;50.518;8.588;2024-01-30T14:45:47;4.77;;;4.40;;